Latest Weather Observations for Hay Point

IDQ60801

Issued at 2:02 am EST Friday 30 January 2015 (issued every 30 minutes, with the page automatically refreshed every 10 minutes)

About weather observations | Map of weather stations | Latest weather observations for QLD | Other Formats
Station Details ID: 033317 Name: HAY POINT Lat: -21.29 Lon: 149.30 Height: 7.0 m
Data from the previous 72 hours. | See also: Recent months for locations in Queensland
Date/Time
EST
Temp
°C
App
Temp
°C
Dew
Point
Rel
Hum
%
Delta-T
°C
Wind Press
QNH
hPa
Press
MSL
hPa
Rain
since 9 am
mm
Dir
 
Spd
km/h
Gust
km/h
Spd
kts
Gust
kts
30/02:00am - - - - - SSE 32 41 17 22 - - -
30/01:48am - - - - - ESE 32 46 17 25 - - -
30/01:30am - - - - - E 24 30 13 16 - - -
30/01:00am - - - - - E 22 26 12 14 - - -
30/12:30am - - - - - S 24 30 13 16 - - -
30/12:00am - - - - - E 32 37 17 20 - - -
 
Date/Time
EST
Temp
°C
App
Temp
°C
Dew
Point
Rel
Hum
%
Delta-T
°C
Wind Press
QNH
hPa
Press
MSL
hPa
Rain
since 9 am
mm
Dir
 
Spd
km/h
Gust
km/h
Spd
kts
Gust
kts
29/11:30pm - - - - - ESE 28 35 15 19 - - -
29/11:00pm - - - - - ESE 28 32 15 17 - - -
29/10:30pm - - - - - ESE 30 33 16 18 - - -
29/10:00pm - - - - - SE 28 33 15 18 - - -
29/09:30pm - - - - - ESE 28 33 15 18 - - -
29/09:00pm - - - - - ESE 32 39 17 21 - - -
29/08:30pm - - - - - ESE 30 37 16 20 - - -
29/08:00pm - - - - - ESE 30 35 16 19 - - -
29/07:30pm - - - - - ESE 32 35 17 19 - - -
29/07:00pm - - - - - ESE 32 39 17 21 - - -
29/06:30pm - - - - - ESE 32 37 17 20 - - -
29/06:00pm - - - - - ESE 30 35 16 19 - - -
29/05:30pm - - - - - SE 28 32 15 17 - - -
29/05:00pm - - - - - SE 22 30 12 16 - - -
29/04:30pm - - - - - SE 20 26 11 14 - - -
29/04:00pm - - - - - SE 19 26 10 14 - - -
29/03:30pm - - - - - ESE 22 28 12 15 - - -
29/03:00pm - - - - - ESE 26 33 14 18 - - -
29/02:30pm - - - - - E 26 32 14 17 - - -
29/02:00pm - - - - - SE 26 32 14 17 - - -
29/01:30pm - - - - - ESE 20 26 11 14 - - -
29/01:00pm - - - - - E 17 19 9 10 - - -
29/12:30pm - - - - - SSE 19 26 10 14 - - -
29/12:00pm - - - - - SSE 19 24 10 13 - - -
29/11:30am - - - - - SE 20 28 11 15 - - -
29/11:00am - - - - - ENE 19 22 10 12 - - -
29/10:30am - - - - - SE 24 30 13 16 - - -
29/10:00am - - - - - SE 30 37 16 20 - - -
29/09:30am - - - - - SE 26 33 14 18 - - -
29/09:00am - - - - - ESE 30 35 16 19 - - -
29/08:30am - - - - - SSW 13 24 7 13 - - -
29/08:00am - - - - - SE 15 19 8 10 - - -
29/07:30am - - - - - SSE 17 22 9 12 - - -
29/07:00am - - - - - SSW 22 28 12 15 - - -
29/06:30am - - - - - SW 19 22 10 12 - - -
29/06:00am - - - - - SW 15 19 8 10 - - -
29/05:30am - - - - - WSW 17 20 9 11 - - -
29/05:00am - - - - - SSW 11 19 6 10 - - -
29/04:30am - - - - - SW 11 15 6 8 - - -
29/04:00am - - - - - SSW 11 15 6 8 - - -
29/03:30am - - - - - SW 17 26 9 14 - - -
29/03:00am - - - - - SSE 19 30 10 16 - - -
29/02:30am - - - - - S 22 32 12 17 - - -
29/02:00am - - - - - SE 20 28 11 15 - - -
29/01:30am - - - - - ESE 17 20 9 11 - - -
29/01:00am - - - - - S 9 20 5 11 - - -
29/12:30am - - - - - WNW 9 24 5 13 - - -
29/12:21am - - - - - WNW 19 39 10 21 - - -
29/12:06am - - - - - WSW 35 57 19 31 - - -
29/12:02am - - - - - S 32 50 17 27 - - -
29/12:00am - - - - - SSE 30 39 16 21 - - -
 
Date/Time
EST
Temp
°C
App
Temp
°C
Dew
Point
Rel
Hum
%
Delta-T
°C
Wind Press
QNH
hPa
Press
MSL
hPa
Rain
since 9 am
mm
Dir
 
Spd
km/h
Gust
km/h
Spd
kts
Gust
kts
28/11:30pm - - - - - ESE 33 41 18 22 - - -
28/11:00pm - - - - - E 35 39 19 21 - - -
28/10:30pm - - - - - E 37 52 20 28 - - -
28/10:00pm - - - - - E 33 41 18 22 - - -
28/09:37pm - - - - - ESE 20 56 11 30 - - -
28/09:30pm - - - - - E 17 30 9 16 - - -
28/09:00pm - - - - - ENE 41 63 22 34 - - -
28/08:56pm - - - - - ENE 46 67 25 36 - - -
28/08:50pm - - - - - ENE 32 67 17 36 - - -
28/08:47pm - - - - - N 19 46 10 25 - - -
28/08:30pm - - - - - N 17 28 9 15 - - -
28/08:00pm - - - - - ESE 22 28 12 15 - - -
28/07:30pm - - - - - SE 19 28 10 15 - - -
28/07:05pm - - - - - SSE 39 52 21 28 - - -
28/07:00pm - - - - - SSE 41 52 22 28 - - -
28/06:49pm - - - - - ESE 24 44 13 24 - - -
28/06:30pm - - - - - ESE 20 24 11 13 - - -
28/06:00pm - - - - - ESE 17 22 9 12 - - -
28/05:30pm - - - - - E 15 19 8 10 - - -
28/05:00pm - - - - - ENE 17 19 9 10 - - -
28/04:30pm - - - - - ENE 17 20 9 11 - - -
28/04:00pm - - - - - ENE 17 19 9 10 - - -
28/03:30pm - - - - - NE 20 26 11 14 - - -
28/03:00pm - - - - - NE 22 26 12 14 - - -
28/02:30pm - - - - - NE 24 28 13 15 - - -
28/02:00pm - - - - - NNE 28 30 15 16 - - -
28/01:30pm - - - - - NNE 24 28 13 15 - - -
28/01:00pm - - - - - NNE 20 26 11 14 - - -
28/12:30pm - - - - - NNE 19 22 10 12 - - -
28/12:00pm - - - - - NNE 19 22 10 12 - - -
28/11:30am - - - - - NNE 17 19 9 10 - - -
28/11:00am - - - - - NNE 17 20 9 11 - - -
28/10:30am - - - - - N 15 19 8 10 - - -
28/10:00am - - - - - N 19 22 10 12 - - -
28/09:30am - - - - - N 17 20 9 11 - - -
28/09:00am - - - - - N 19 22 10 12 - - -
28/08:30am - - - - - N 20 24 11 13 - - -
28/08:00am - - - - - NNE 19 22 10 12 - - -
28/07:30am - - - - - N 19 24 10 13 - - -
28/07:00am - - - - - N 20 24 11 13 - - -
28/06:30am - - - - - NNE 17 24 9 13 - - -
28/06:00am - - - - - NNE 17 20 9 11 - - -
28/05:30am - - - - - NNE 19 24 10 13 - - -
28/05:00am - - - - - NNE 19 20 10 11 - - -
28/04:30am - - - - - NNE 22 26 12 14 - - -
28/04:00am - - - - - NNE 17 22 9 12 - - -
28/03:30am - - - - - N 30 35 16 19 - - -
28/03:00am - - - - - NE 24 28 13 15 - - -
28/02:30am - - - - - NE 26 30 14 16 - - -
28/02:00am - - - - - NE 22 26 12 14 - - -
28/01:30am - - - - - NNE 19 24 10 13 - - -
28/01:00am - - - - - NE 22 26 12 14 - - -
28/12:30am - - - - - NE 17 19 9 10 - - -
28/12:00am - - - - - ENE 17 19 9 10 - - -
 
Date/Time
EST
Temp
°C
App
Temp
°C
Dew
Point
Rel
Hum
%
Delta-T
°C
Wind Press
QNH
hPa
Press
MSL
hPa
Rain
since 9 am
mm
Dir
 
Spd
km/h
Gust
km/h
Spd
kts
Gust
kts
27/11:30pm - - - - - NE 17 20 9 11 - - -
27/11:00pm - - - - - ENE 17 19 9 10 - - -
27/10:30pm - - - - - ENE 15 19 8 10 - - -
27/10:00pm - - - - - E 17 19 9 10 - - -
27/09:30pm - - - - - E 15 17 8 9 - - -
27/09:00pm - - - - - E 15 19 8 10 - - -
27/08:30pm - - - - - ENE 19 22 10 12 - - -
27/08:00pm - - - - - ENE 13 17 7 9 - - -
27/07:30pm - - - - - E 17 22 9 12 - - -
27/07:00pm - - - - - ENE 17 20 9 11 - - -
27/06:30pm - - - - - ENE 15 17 8 9 - - -
27/06:00pm - - - - - E 15 19 8 10 - - -
27/05:30pm - - - - - ENE 13 15 7 8 - - -
27/05:00pm - - - - - ENE 13 19 7 10 - - -
27/04:30pm - - - - - ENE 17 22 9 12 - - -
27/04:00pm - - - - - ENE 17 20 9 11 - - -
27/03:30pm - - - - - ENE 19 22 10 12 - - -
27/03:00pm - - - - - ENE 17 19 9 10 - - -
27/02:30pm - - - - - E 17 19 9 10 - - -
27/02:00pm - - - - - E 15 19 8 10 - - -
27/01:30pm - - - - - E 15 19 8 10 - - -
27/01:00pm - - - - - E 17 19 9 10 - - -
27/12:30pm - - - - - ESE 13 17 7 9 - - -
27/12:00pm - - - - - E 11 15 6 8 - - -
27/11:30am - - - - - E 13 15 7 8 - - -
27/11:00am - - - - - E 13 15 7 8 - - -
27/10:30am - - - - - ESE 13 15 7 8 - - -
27/10:00am - - - - - ESE 13 17 7 9 - - -
27/09:30am - - - - - SE 13 19 7 10 - - -
27/09:00am - - - - - SSE 11 15 6 8 - - -
27/08:30am - - - - - SSE 11 15 6 8 - - -
27/08:00am - - - - - SSE 9 11 5 6 - - -
27/07:30am - - - - - SSE 9 11 5 6 - - -
27/07:00am - - - - - SSW 11 13 6 7 - - -
27/06:30am - - - - - SSW 9 11 5 6 - - -
27/06:00am - - - - - SW 11 13 6 7 - - -
27/05:30am - - - - - SSW 9 13 5 7 - - -
27/05:00am - - - - - WSW 11 13 6 7 - - -
27/04:30am - - - - - SW 2 7 1 4 - - -
27/04:00am - - - - - SW 9 11 5 6 - - -
27/03:30am - - - - - SW 9 13 5 7 - - -
27/03:00am - - - - - CALM 0 0 0 0 - - -
27/02:30am - - - - - SW 7 9 4 5 - - -

Other Formats:

Comma delimited format used in spreadsheet applications
http://www.bom.gov.au/fwo/IDQ60801/IDQ60801.99367.axf

JavaScript Object Notation format (JSON) in row-major order
http://www.bom.gov.au/fwo/IDQ60801/IDQ60801.99367.json